SAS27A EKBI-ENZV
Flight info
| Callsign | SAS27A |
|---|---|
| Flight time | 0h 38m |
| Altitude | 30000 |
| Route | RERPA DCT RIVEX |
| Aircraft | A320/M-SDE3FGHIRWY/LB1 |
Departure
| Time | 2026-04-12 10:50 |
|---|---|
| Airport | Billund Airport (EKBI) |
Arrival
| Time | 2026-04-12 11:28 |
|---|---|
| Airport | Stavanger Airport, Sola (ENZV) |
| Time | Latitude | Longitude | Altitude | Speed | Heading |
|---|---|---|---|---|---|
| 2026-04-12 10:50 | 55.76630 | 9.10531 | 2605 ft | 215 kts | 354° |
| 2026-04-12 10:50 | 55.78204 | 9.10118 | 2991 ft | 241 kts | 352° |
| 2026-04-12 10:50 | 55.79941 | 9.09613 | 3504 ft | 266 kts | 351° |
| 2026-04-12 10:50 | 55.81794 | 9.09040 | 4276 ft | 278 kts | 351° |
| 2026-04-12 10:51 | 55.83714 | 9.08414 | 5284 ft | 283 kts | 351° |
| 2026-04-12 10:51 | 55.85669 | 9.07759 | 6298 ft | 287 kts | 351° |
| 2026-04-12 10:51 | 55.87646 | 9.07088 | 7246 ft | 291 kts | 350° |
| 2026-04-12 10:51 | 55.89658 | 9.06409 | 8185 ft | 295 kts | 349° |
| 2026-04-12 10:52 | 55.91689 | 9.05722 | 9134 ft | 299 kts | 347° |
| 2026-04-12 10:52 | 55.93671 | 9.04588 | 10068 ft | 300 kts | 333° |
| 2026-04-12 10:52 | 55.95502 | 9.02628 | 10520 ft | 317 kts | 319° |
| 2026-04-12 10:52 | 55.97221 | 8.99953 | 10792 ft | 339 kts | 316° |
| 2026-04-12 10:53 | 55.99014 | 8.97096 | 11395 ft | 348 kts | 316° |
| 2026-04-12 10:53 | 56.00816 | 8.94220 | 12117 ft | 353 kts | 316° |
| 2026-04-12 10:53 | 56.02653 | 8.91305 | 12894 ft | 356 kts | 317° |
| 2026-04-12 10:53 | 56.04532 | 8.88333 | 13698 ft | 360 kts | 317° |
| 2026-04-12 10:54 | 56.06421 | 8.85351 | 14429 ft | 363 kts | 317° |
| 2026-04-12 10:54 | 56.08326 | 8.82345 | 15136 ft | 366 kts | 317° |
| 2026-04-12 10:54 | 56.10240 | 8.79320 | 15826 ft | 368 kts | 316° |
| 2026-04-12 10:54 | 56.12162 | 8.76266 | 16499 ft | 371 kts | 316° |
| 2026-04-12 10:55 | 56.14098 | 8.73172 | 17192 ft | 374 kts | 316° |
| 2026-04-12 10:55 | 56.16048 | 8.70052 | 17896 ft | 377 kts | 315° |
| 2026-04-12 10:55 | 56.18017 | 8.66902 | 18555 ft | 381 kts | 315° |
| 2026-04-12 10:55 | 56.20003 | 8.63723 | 19180 ft | 384 kts | 315° |
| 2026-04-12 10:56 | 56.22004 | 8.60517 | 19824 ft | 387 kts | 315° |
| 2026-04-12 10:56 | 56.24002 | 8.57316 | 20475 ft | 391 kts | 315° |
| 2026-04-12 10:56 | 56.26046 | 8.54035 | 21092 ft | 394 kts | 315° |
| 2026-04-12 10:56 | 56.28093 | 8.50743 | 21684 ft | 397 kts | 315° |
| 2026-04-12 10:57 | 56.30173 | 8.47395 | 22266 ft | 400 kts | 315° |
| 2026-04-12 10:57 | 56.32240 | 8.44069 | 22834 ft | 404 kts | 315° |
| 2026-04-12 10:57 | 56.34353 | 8.40663 | 23397 ft | 407 kts | 315° |
| 2026-04-12 10:57 | 56.36476 | 8.37229 | 23878 ft | 410 kts | 315° |
| 2026-04-12 10:58 | 56.38582 | 8.33814 | 24352 ft | 412 kts | 315° |
| 2026-04-12 10:58 | 56.40725 | 8.30336 | 24819 ft | 414 kts | 315° |
| 2026-04-12 10:58 | 56.42870 | 8.26846 | 25304 ft | 416 kts | 315° |
| 2026-04-12 10:58 | 56.45032 | 8.23325 | 25740 ft | 417 kts | 314° |
| 2026-04-12 10:59 | 56.47240 | 8.19973 | 26182 ft | 422 kts | 321° |
| 2026-04-12 10:59 | 56.49757 | 8.17193 | 26625 ft | 428 kts | 330° |
| 2026-04-12 10:59 | 56.52481 | 8.14954 | 27063 ft | 431 kts | 332° |
| 2026-04-12 10:59 | 56.55230 | 8.12733 | 27497 ft | 433 kts | 332° |
| 2026-04-12 11:00 | 56.57986 | 8.10500 | 27937 ft | 435 kts | 332° |
| 2026-04-12 11:00 | 56.60752 | 8.08251 | 28357 ft | 437 kts | 332° |
| 2026-04-12 11:00 | 56.63538 | 8.05982 | 28773 ft | 439 kts | 331° |
| 2026-04-12 11:00 | 56.66337 | 8.03704 | 29160 ft | 441 kts | 331° |
| 2026-04-12 11:01 | 56.69145 | 8.01412 | 29563 ft | 443 kts | 331° |
| 2026-04-12 11:01 | 56.71964 | 7.99108 | 29927 ft | 445 kts | 331° |
| 2026-04-12 11:01 | 56.77615 | 7.94477 | 29997 ft | 452 kts | 331° |
| 2026-04-12 11:02 | 56.83432 | 7.89673 | 30009 ft | 463 kts | 331° |
| 2026-04-12 11:02 | 56.89296 | 7.84821 | 29989 ft | 465 kts | 331° |
| 2026-04-12 11:03 | 56.95206 | 7.79914 | 29995 ft | 465 kts | 331° |
| 2026-04-12 11:03 | 57.03305 | 7.73165 | 29985 ft | 466 kts | 331° |
| 2026-04-12 11:04 | 57.15065 | 7.63316 | 30006 ft | 467 kts | 331° |
| 2026-04-12 11:04 | 57.25040 | 7.54902 | 30022 ft | 467 kts | 331° |
| 2026-04-12 11:05 | 57.30910 | 7.49922 | 29988 ft | 457 kts | 330° |
| 2026-04-12 11:05 | 57.33750 | 7.47517 | 29989 ft | 443 kts | 330° |
| 2026-04-12 11:05 | 57.36539 | 7.45150 | 29997 ft | 439 kts | 330° |
| 2026-04-12 11:06 | 57.42088 | 7.40411 | 29989 ft | 438 kts | 330° |
| 2026-04-12 11:06 | 57.47575 | 7.35691 | 30000 ft | 438 kts | 330° |
| 2026-04-12 11:07 | 57.53124 | 7.30920 | 29990 ft | 439 kts | 330° |
| 2026-04-12 11:07 | 57.58644 | 7.26158 | 30003 ft | 439 kts | 330° |
| 2026-04-12 11:08 | 57.64190 | 7.21361 | 29996 ft | 439 kts | 330° |
| 2026-04-12 11:08 | 57.69734 | 7.16550 | 30008 ft | 440 kts | 330° |
| 2026-04-12 11:09 | 57.75298 | 7.11704 | 30005 ft | 440 kts | 330° |
| 2026-04-12 11:09 | 57.78086 | 7.09272 | 29888 ft | 441 kts | 330° |
| 2026-04-12 11:09 | 57.80868 | 7.06839 | 29610 ft | 442 kts | 330° |
| 2026-04-12 11:10 | 57.83661 | 7.04390 | 29315 ft | 443 kts | 330° |
| 2026-04-12 11:10 | 57.86429 | 7.01864 | 29042 ft | 441 kts | 328° |
| 2026-04-12 11:10 | 57.89113 | 6.99226 | 28767 ft | 439 kts | 327° |
| 2026-04-12 11:10 | 57.91786 | 6.96462 | 28502 ft | 438 kts | 326° |
| 2026-04-12 11:11 | 57.94439 | 6.93649 | 28226 ft | 437 kts | 326° |
| 2026-04-12 11:11 | 57.97090 | 6.90832 | 27948 ft | 436 kts | 326° |
| 2026-04-12 11:11 | 57.99742 | 6.88038 | 27316 ft | 435 kts | 327° |
| 2026-04-12 11:11 | 58.02349 | 6.85320 | 26672 ft | 431 kts | 327° |
| 2026-04-12 11:12 | 58.04978 | 6.82605 | 26021 ft | 429 kts | 327° |
| 2026-04-12 11:12 | 58.07590 | 6.79922 | 25383 ft | 426 kts | 327° |
| 2026-04-12 11:12 | 58.10196 | 6.77244 | 24742 ft | 424 kts | 327° |
| 2026-04-12 11:12 | 58.12782 | 6.74577 | 24112 ft | 423 kts | 327° |
| 2026-04-12 11:13 | 58.15361 | 6.71911 | 23468 ft | 423 kts | 327° |
| 2026-04-12 11:13 | 58.17942 | 6.69237 | 22796 ft | 420 kts | 327° |
| 2026-04-12 11:13 | 58.20474 | 6.66602 | 22214 ft | 417 kts | 327° |
| 2026-04-12 11:13 | 58.23008 | 6.63950 | 21628 ft | 415 kts | 327° |
| 2026-04-12 11:14 | 58.25537 | 6.61299 | 21065 ft | 413 kts | 327° |
| 2026-04-12 11:14 | 58.28050 | 6.58666 | 20499 ft | 412 kts | 327° |
| 2026-04-12 11:14 | 58.30565 | 6.56028 | 19947 ft | 410 kts | 327° |
| 2026-04-12 11:14 | 58.33036 | 6.53431 | 19399 ft | 409 kts | 327° |
| 2026-04-12 11:15 | 58.35530 | 6.50807 | 18822 ft | 408 kts | 327° |
| 2026-04-12 11:15 | 58.38007 | 6.48194 | 18238 ft | 407 kts | 328° |
| 2026-04-12 11:15 | 58.40484 | 6.45580 | 17604 ft | 405 kts | 328° |
| 2026-04-12 11:15 | 58.42936 | 6.42986 | 17002 ft | 402 kts | 327° |
| 2026-04-12 11:16 | 58.45377 | 6.40397 | 16373 ft | 400 kts | 327° |
| 2026-04-12 11:16 | 58.47806 | 6.37816 | 15770 ft | 398 kts | 327° |
| 2026-04-12 11:16 | 58.50223 | 6.35249 | 15217 ft | 394 kts | 327° |
| 2026-04-12 11:16 | 58.52608 | 6.32718 | 14631 ft | 391 kts | 327° |
| 2026-04-12 11:17 | 58.54982 | 6.30190 | 14005 ft | 389 kts | 327° |
| 2026-04-12 11:17 | 58.57343 | 6.27672 | 13329 ft | 388 kts | 327° |
| 2026-04-12 11:17 | 58.59702 | 6.25153 | 12696 ft | 386 kts | 327° |
| 2026-04-12 11:17 | 58.62015 | 6.22680 | 12068 ft | 383 kts | 327° |
| 2026-04-12 11:18 | 58.64332 | 6.20200 | 11452 ft | 381 kts | 327° |
| 2026-04-12 11:18 | 58.66644 | 6.17718 | 10825 ft | 379 kts | 327° |
| 2026-04-12 11:18 | 58.68923 | 6.15268 | 10541 ft | 368 kts | 327° |
| 2026-04-12 11:18 | 58.71113 | 6.12915 | 10455 ft | 351 kts | 327° |
| 2026-04-12 11:19 | 58.73228 | 6.10637 | 10109 ft | 346 kts | 327° |
| 2026-04-12 11:19 | 58.75292 | 6.08408 | 9758 ft | 331 kts | 327° |
| 2026-04-12 11:19 | 58.77260 | 6.06280 | 9354 ft | 318 kts | 327° |
| 2026-04-12 11:19 | 58.79149 | 6.04230 | 8704 ft | 314 kts | 327° |
| 2026-04-12 11:20 | 58.81047 | 6.02163 | 8006 ft | 311 kts | 328° |
| 2026-04-12 11:20 | 58.82939 | 6.00101 | 7321 ft | 312 kts | 328° |
| 2026-04-12 11:20 | 58.84827 | 5.98047 | 6716 ft | 310 kts | 329° |
| 2026-04-12 11:20 | 58.86705 | 5.96007 | 6026 ft | 309 kts | 329° |
| 2026-04-12 11:21 | 58.88584 | 5.93964 | 5393 ft | 309 kts | 330° |
| 2026-04-12 11:21 | 58.90440 | 5.91939 | 5095 ft | 298 kts | 329° |
| 2026-04-12 11:21 | 58.92188 | 5.90035 | 4960 ft | 279 kts | 328° |
| 2026-04-12 11:21 | 58.93840 | 5.88236 | 4542 ft | 272 kts | 329° |
| 2026-04-12 11:22 | 58.95470 | 5.86453 | 4126 ft | 266 kts | 329° |
| 2026-04-12 11:22 | 58.97063 | 5.84703 | 3696 ft | 260 kts | 329° |
| 2026-04-12 11:22 | 58.98628 | 5.82980 | 3284 ft | 256 kts | 330° |
| 2026-04-12 11:22 | 59.00165 | 5.81284 | 2990 ft | 251 kts | 331° |
| 2026-04-12 11:23 | 59.01699 | 5.79594 | 2871 ft | 253 kts | 330° |
| 2026-04-12 11:23 | 59.03062 | 5.77533 | 2666 ft | 247 kts | 307° |
| 2026-04-12 11:23 | 59.03855 | 5.74646 | 2326 ft | 238 kts | 279° |
| 2026-04-12 11:23 | 59.04030 | 5.71595 | 2043 ft | 216 kts | 256° |
| 2026-04-12 11:24 | 59.03718 | 5.68922 | 2005 ft | 195 kts | 237° |
| 2026-04-12 11:24 | 59.03089 | 5.66761 | 1996 ft | 174 kts | 220° |
| 2026-04-12 11:24 | 59.02300 | 5.65190 | 2038 ft | 155 kts | 207° |
| 2026-04-12 11:24 | 59.01419 | 5.64135 | 2028 ft | 144 kts | 194° |
| 2026-04-12 11:25 | 59.00487 | 5.63555 | 2014 ft | 137 kts | 182° |
| 2026-04-12 11:25 | 58.99554 | 5.63422 | 1983 ft | 133 kts | 172° |
| 2026-04-12 11:25 | 58.98629 | 5.63451 | 1866 ft | 133 kts | 172° |
| 2026-04-12 11:25 | 58.97704 | 5.63479 | 1721 ft | 133 kts | 172° |
| 2026-04-12 11:26 | 58.96779 | 5.63508 | 1544 ft | 133 kts | 172° |
| 2026-04-12 11:26 | 58.95884 | 5.63532 | 1373 ft | 123 kts | 172° |
| 2026-04-12 11:26 | 58.95049 | 5.63556 | 1204 ft | 117 kts | 171° |
| 2026-04-12 11:26 | 58.94239 | 5.63582 | 1038 ft | 115 kts | 170° |
| 2026-04-12 11:27 | 58.93443 | 5.63608 | 867 ft | 116 kts | 172° |
| 2026-04-12 11:27 | 58.92636 | 5.63633 | 705 ft | 116 kts | 171° |
| 2026-04-12 11:27 | 58.91834 | 5.63657 | 559 ft | 115 kts | 172° |
| 2026-04-12 11:27 | 58.91029 | 5.63681 | 400 ft | 115 kts | 172° |
| 2026-04-12 11:28 | 58.90241 | 5.63705 | 250 ft | 114 kts | 171° |
| 2026-04-12 11:28 | 58.89442 | 5.63730 | 100 ft | 115 kts | 171° |
| 2026-04-12 11:28 | 58.88681 | 5.63742 | 26 ft | 94 kts | 175° |
| 2026-04-12 11:28 | 58.88198 | 5.63777 | 31 ft | 45 kts | 179° |
| 2026-04-12 11:29 | 58.87936 | 5.63781 | 31 ft | 35 kts | 179° |
| 2026-04-12 11:29 | 58.87746 | 5.63783 | 32 ft | 16 kts | 184° |
| 2026-04-12 11:29 | 58.87704 | 5.63627 | 33 ft | 17 kts | 281° |
| 2026-04-12 11:29 | 58.87743 | 5.63383 | 32 ft | 21 kts | 288° |
| 2026-04-12 11:30 | 58.87863 | 5.63306 | 32 ft | 17 kts | 16° |
| 2026-04-12 11:30 | 58.87914 | 5.63341 | 31 ft | 0 kts | 21° |
| 2026-04-12 11:30 | 58.87915 | 5.63342 | 31 ft | 2 kts | 21° |
| 2026-04-12 11:30 | 58.87953 | 5.63370 | 31 ft | 9 kts | 21° |
| 2026-04-12 11:31 | 58.88034 | 5.63429 | 31 ft | 15 kts | 10° |
| 2026-04-12 11:31 | 58.88159 | 5.63433 | 29 ft | 20 kts | 359° |
| 2026-04-12 11:31 | 58.88267 | 5.63411 | 28 ft | 15 kts | 323° |
| 2026-04-12 11:31 | 58.88276 | 5.63340 | 28 ft | 2 kts | 282° |
| 2026-04-12 11:32 | 58.88288 | 5.63291 | 28 ft | 6 kts | 310° |
| 2026-04-12 11:32 | 58.88293 | 5.63187 | 28 ft | 10 kts | 256° |
| 2026-04-12 11:32 | 58.88276 | 5.63065 | 28 ft | 4 kts | 257° |
| 2026-04-12 11:32 | 58.88276 | 5.63058 | 28 ft | 0 kts | 258° |